Time;durP1;ratioP1;P1;durP2;ratioP2;P2;SDS_P1;SDS_P2;PMS_P1;PMS_P2;Temp;Humidity;BMP_temperature;BMP_pressure;BME280_temperature;BME280_humidity;BME280_pressure;Samples;Min_cycle;Max_cycle;Signal;HPM_P1;HPM_P2
2023/05/07 00:01:36;;;;;;;7.05;4.28;;;12.00;99.90;;;;;;5034803;28;20029;-67
2023/05/07 00:04:03;;;;;;;4.72;4.30;;;12.00;99.90;;;;;;5034748;28;20018;-67
2023/05/07 00:06:29;;;;;;;7.05;4.30;;;11.90;99.90;;;;;;5034710;28;20095;-67
2023/05/07 00:08:56;;;;;;;7.93;5.18;;;11.90;99.90;;;;;;5034658;28;20029;-67
2023/05/07 00:11:21;;;;;;;13.25;5.53;;;11.90;99.90;;;;;;5034600;28;20034;-67
2023/05/07 00:13:48;;;;;;;7.32;4.80;;;11.90;99.90;;;;;;5034665;28;20036;-67
2023/05/07 00:16:13;;;;;;;5.65;3.85;;;11.90;99.90;;;;;;5034557;28;20473;-67
2023/05/07 00:18:39;;;;;;;3.85;3.25;;;11.90;99.90;;;;;;5034561;28;20100;-67
2023/05/07 00:21:05;;;;;;;3.30;3.00;;;11.80;99.90;;;;;;5016685;28;20029;-67
2023/05/07 00:23:31;;;;;;;3.25;2.83;;;11.70;99.90;;;;;;5034836;28;20349;-67
2023/05/07 00:25:56;;;;;;;4.07;3.15;;;11.60;99.90;;;;;;5034277;28;20112;-67
2023/05/07 00:28:22;;;;;;;3.40;3.00;;;11.60;99.90;;;;;;5034311;28;20040;-67
2023/05/07 00:30:47;;;;;;;5.25;2.83;;;11.50;99.90;;;;;;5016531;28;20040;-67
2023/05/07 00:33:13;;;;;;;9.25;4.03;;;11.50;99.90;;;;;;5034009;28;20030;-67
2023/05/07 00:35:39;;;;;;;4.93;4.10;;;11.50;99.90;;;;;;5034340;28;20036;-67
2023/05/07 00:38:04;;;;;;;10.27;4.57;;;11.50;99.90;;;;;;5033922;28;20029;-67
2023/05/07 00:40:30;;;;;;;17.20;5.45;;;11.50;99.90;;;;;;5034144;28;20037;-67
2023/05/07 00:42:57;;;;;;;26.33;5.30;;;11.60;99.90;;;;;;5016458;28;20025;-67
2023/05/07 00:45:26;;;;;;;11.70;5.22;;;11.60;99.90;;;;;;5016063;28;20503;-67
2023/05/07 00:47:54;;;;;;;5.63;4.18;;;11.60;99.90;;;;;;5034002;28;20058;-67
2023/05/07 00:50:20;;;;;;;7.00;4.47;;;11.60;99.90;;;;;;5033978;28;20041;-67
2023/05/07 00:52:45;;;;;;;6.18;3.47;;;11.50;99.90;;;;;;5033696;28;20351;-67
2023/05/07 00:55:12;;;;;;;5.00;3.45;;;11.50;99.90;;;;;;5033992;28;20025;-67
2023/05/07 00:57:40;;;;;;;3.88;3.08;;;11.50;99.90;;;;;;5033543;28;20021;-67
2023/05/07 01:00:08;;;;;;;16.67;4.18;;;11.40;99.90;;;;;;5034159;28;20025;-67
2023/05/07 01:02:35;;;;;;;5.07;4.20;;;11.40;99.90;;;;;;5034005;28;20453;-67
2023/05/07 01:05:03;;;;;;;11.38;4.63;;;11.40;99.90;;;;;;5034135;28;20095;-67
2023/05/07 01:07:30;;;;;;;17.13;4.85;;;11.40;99.90;;;;;;5033844;28;20030;-67
2023/05/07 01:09:56;;;;;;;11.10;5.03;;;11.30;99.90;;;;;;5016535;28;20044;-68
2023/05/07 01:12:24;;;;;;;14.85;4.65;;;11.30;99.90;;;;;;5034898;28;20377;-68
2023/05/07 01:14:50;;;;;;;11.90;4.60;;;11.30;99.90;;;;;;5016409;28;20037;-68
2023/05/07 01:17:16;;;;;;;6.43;4.90;;;11.30;99.90;;;;;;5016709;28;20026;-67
2023/05/07 01:19:42;;;;;;;12.05;4.70;;;11.30;99.90;;;;;;5016355;28;20032;-67
2023/05/07 01:22:10;;;;;;;18.65;5.32;;;11.30;99.90;;;;;;5016044;28;20397;-67
2023/05/07 01:24:37;;;;;;;10.23;5.47;;;11.30;99.90;;;;;;5016067;28;20112;-67
2023/05/07 01:27:02;;;;;;;6.43;4.93;;;11.30;99.90;;;;;;5015974;28;20029;-67
2023/05/07 01:29:28;;;;;;;7.82;4.55;;;11.30;99.90;;;;;;5015927;28;20032;-67
2023/05/07 01:31:56;;;;;;;5.38;4.50;;;11.30;99.90;;;;;;5016111;28;20083;-67
2023/05/07 01:34:23;;;;;;;6.73;4.60;;;11.20;99.90;;;;;;5015735;28;20117;-68
2023/05/07 01:36:49;;;;;;;7.88;3.90;;;11.20;99.90;;;;;;5033254;28;20032;-67
2023/05/07 01:39:15;;;;;;;4.53;4.10;;;11.10;99.90;;;;;;5033642;28;20422;-67
2023/05/07 01:41:43;;;;;;;6.47;3.70;;;11.10;99.90;;;;;;5015837;28;20124;-67
2023/05/07 01:44:12;;;;;;;4.30;3.63;;;11.00;99.90;;;;;;5033270;28;20473;-67
2023/05/07 01:46:37;;;;;;;4.72;4.15;;;11.00;99.90;;;;;;5015420;28;20133;-67
2023/05/07 01:49:04;;;;;;;4.60;3.85;;;11.00;99.90;;;;;;5033706;28;20446;-67
2023/05/07 01:51:30;;;;;;;7.22;4.18;;;11.00;99.90;;;;;;5033144;28;20495;-67
2023/05/07 01:53:56;;;;;;;3.90;3.30;;;10.90;99.90;;;;;;5033383;28;20109;-67
2023/05/07 01:56:21;;;;;;;4.95;3.38;;;10.90;99.90;;;;;;5015609;28;20053;-68
2023/05/07 01:58:47;;;;;;;5.95;4.07;;;10.80;99.90;;;;;;5033118;28;20021;-68
2023/05/07 02:01:14;;;;;;;4.35;3.75;;;10.80;99.90;;;;;;5033626;28;20026;-68
2023/05/07 02:03:40;;;;;;;6.50;3.67;;;10.70;99.90;;;;;;5033336;28;20457;-68
2023/05/07 02:06:05;;;;;;;4.53;3.88;;;10.70;99.90;;;;;;5015237;28;20026;-67
2023/05/07 02:08:31;;;;;;;4.55;4.05;;;10.70;99.90;;;;;;5034158;28;20025;-67
2023/05/07 02:10:57;;;;;;;4.38;3.97;;;10.70;99.90;;;;;;5019105;28;20042;-67
2023/05/07 02:13:24;;;;;;;5.50;4.25;;;10.60;99.90;;;;;;5019220;28;20076;-67
2023/05/07 02:15:50;;;;;;;8.25;4.50;;;10.60;99.90;;;;;;5037340;28;20022;-67
2023/05/07 02:18:17;;;;;;;4.97;4.38;;;10.60;99.90;;;;;;5037052;28;20025;-67
2023/05/07 02:20:42;;;;;;;4.72;4.20;;;10.60;99.90;;;;;;5019290;28;20034;-67
2023/05/07 02:23:08;;;;;;;4.55;4.07;;;10.60;99.90;;;;;;5036779;28;20091;-67
2023/05/07 02:25:34;;;;;;;4.50;4.07;;;10.60;99.90;;;;;;5036657;28;20026;-67
2023/05/07 02:28:00;;;;;;;4.70;4.20;;;10.50;99.90;;;;;;5018852;28;20116;-67
2023/05/07 02:30:26;;;;;;;5.78;4.47;;;10.50;99.90;;;;;;5036222;28;20436;-67
2023/05/07 02:32:51;;;;;;;10.43;5.47;;;10.50;99.90;;;;;;5018708;28;20030;-67
2023/05/07 02:35:17;;;;;;;5.68;4.63;;;10.50;99.90;;;;;;5018525;28;20060;-67
2023/05/07 02:37:43;;;;;;;6.00;4.30;;;10.50;99.90;;;;;;5018729;28;20116;-68
2023/05/07 02:40:10;;;;;;;7.72;5.03;;;10.50;99.90;;;;;;5018648;28;20022;-68
2023/05/07 02:42:35;;;;;;;5.00;4.35;;;10.40;99.90;;;;;;5036401;28;20060;-68
2023/05/07 02:45:01;;;;;;;5.18;4.63;;;10.40;99.90;;;;;;5036110;28;20072;-68
2023/05/07 02:47:27;;;;;;;8.98;4.35;;;10.40;99.90;;;;;;5018518;28;20159;-67
2023/05/07 02:49:54;;;;;;;5.97;5.13;;;10.30;99.90;;;;;;5018435;28;20029;-67
2023/05/07 02:52:20;;;;;;;7.50;4.97;;;10.30;99.90;;;;;;5018411;28;20103;-67
2023/05/07 02:54:46;;;;;;;7.25;4.90;;;10.30;99.90;;;;;;5018570;28;20359;-67
2023/05/07 02:57:12;;;;;;;8.38;5.90;;;10.30;99.90;;;;;;5035820;28;20033;-67
2023/05/07 02:59:38;;;;;;;8.88;4.88;;;10.30;99.90;;;;;;5018327;28;20037;-68
2023/05/07 03:02:03;;;;;;;6.68;4.72;;;10.20;99.90;;;;;;5018421;28;20465;-68
2023/05/07 03:04:29;;;;;;;6.32;4.97;;;10.20;99.90;;;;;;5036459;28;20343;-68
2023/05/07 03:06:55;;;;;;;6.38;5.22;;;10.20;99.90;;;;;;5018153;28;20033;-67
2023/05/07 03:09:21;;;;;;;8.02;5.65;;;10.20;99.90;;;;;;5035805;28;20292;-68
2023/05/07 03:11:46;;;;;;;6.63;5.82;;;10.20;99.90;;;;;;5035787;28;20478;-67
2023/05/07 03:14:12;;;;;;;6.50;5.47;;;10.20;99.90;;;;;;5036145;28;20120;-67
2023/05/07 03:16:38;;;;;;;6.15;4.80;;;10.20;99.90;;;;;;5035774;28;20112;-67
2023/05/07 03:19:04;;;;;;;9.43;5.00;;;10.20;99.90;;;;;;5017383;28;20047;-67
2023/05/07 03:21:30;;;;;;;7.63;4.68;;;10.10;99.90;;;;;;5017788;28;20033;-67
2023/05/07 03:23:56;;;;;;;6.47;4.68;;;10.10;99.90;;;;;;5035496;28;20488;-68
2023/05/07 03:26:22;;;;;;;7.18;5.35;;;10.10;99.90;;;;;;5035518;28;20026;-67
2023/05/07 03:28:47;;;;;;;8.80;5.35;;;10.10;99.90;;;;;;5036113;28;20029;-67
2023/05/07 03:31:13;;;;;;;6.38;5.60;;;10.10;99.90;;;;;;5035404;28;20037;-67
2023/05/07 03:33:53;;;;;;;7.60;5.53;;;10.10;99.90;;;;;;5035647;28;20373;-67
2023/05/07 03:36:19;;;;;;;6.13;5.03;;;10.10;99.90;;;;;;5035410;28;20033;-67
2023/05/07 03:38:44;;;;;;;6.75;4.63;;;10.00;99.90;;;;;;5035497;28;20021;-68
2023/05/07 03:41:13;;;;;;;9.68;4.95;;;10.00;99.90;;;;;;5035184;28;20477;-67
2023/05/07 03:43:38;;;;;;;8.50;5.15;;;10.00;99.90;;;;;;5035200;28;20021;-67
2023/05/07 03:46:13;;;;;;;6.65;5.38;;;10.00;99.90;;;;;;5017132;28;20133;-67
2023/05/07 03:48:39;;;;;;;7.25;4.57;;;10.00;99.90;;;;;;5034933;28;20057;-68
2023/05/07 03:51:04;;;;;;;7.90;5.03;;;10.00;99.90;;;;;;5035492;28;20064;-67
2023/05/07 03:53:30;;;;;;;5.32;4.82;;;10.00;99.90;;;;;;5035196;28;20475;-67
2023/05/07 03:55:56;;;;;;;9.50;5.22;;;10.00;99.90;;;;;;5034719;28;20080;-67
2023/05/07 03:58:21;;;;;;;6.93;4.90;;;10.00;99.90;;;;;;5034662;28;20032;-68
2023/05/07 04:00:47;;;;;;;7.32;4.97;;;10.00;99.90;;;;;;5034909;28;20030;-67
2023/05/07 04:03:13;;;;;;;8.07;4.82;;;10.00;99.90;;;;;;5017072;28;20057;-70
2023/05/07 04:05:39;;;;;;;7.30;4.97;;;10.00;99.90;;;;;;5034595;28;20072;-70
2023/05/07 04:08:05;;;;;;;7.18;5.57;;;10.00;99.90;;;;;;5034723;28;20492;-70
2023/05/07 04:10:31;;;;;;;6.75;5.00;;;10.10;99.90;;;;;;5016897;28;20397;-71
2023/05/07 04:12:57;;;;;;;6.97;5.30;;;10.10;99.90;;;;;;5034357;28;20026;-70
2023/05/07 04:15:23;;;;;;;10.73;5.18;;;10.10;99.90;;;;;;5016862;28;20025;-68
2023/05/07 04:17:49;;;;;;;9.10;5.32;;;10.20;99.90;;;;;;5034613;28;20071;-69
2023/05/07 04:20:16;;;;;;;11.15;5.70;;;10.20;99.90;;;;;;5034877;28;20116;-70
2023/05/07 04:22:42;;;;;;;9.60;6.45;;;10.20;99.90;;;;;;5034474;28;20034;-70
2023/05/07 04:25:11;;;;;;;10.60;6.15;;;10.30;99.90;;;;;;5016552;28;20026;-69
2023/05/07 04:27:37;;;;;;;7.45;5.72;;;10.40;99.90;;;;;;5034379;28;20347;-69
2023/05/07 04:30:03;;;;;;;7.32;6.40;;;10.40;99.90;;;;;;5034361;28;20096;-69
2023/05/07 04:32:30;;;;;;;12.32;7.00;;;10.50;99.90;;;;;;5016168;28;20029;-69
2023/05/07 04:34:56;;;;;;;10.02;6.68;;;10.50;99.90;;;;;;5034208;28;20029;-68
2023/05/07 04:37:22;;;;;;;9.88;7.40;;;10.60;99.90;;;;;;5016544;28;20029;-67
2023/05/07 04:39:48;;;;;;;10.95;7.20;;;10.60;99.90;;;;;;5016669;28;20028;-67
2023/05/07 04:42:17;;;;;;;11.38;8.13;;;10.80;99.90;;;;;;5016368;28;20354;-67
2023/05/07 04:44:44;;;;;;;11.75;7.72;;;10.80;99.90;;;;;;5016734;28;20025;-67
2023/05/07 04:47:10;;;;;;;14.38;8.32;;;10.90;99.90;;;;;;5016319;28;20049;-67
2023/05/07 04:49:37;;;;;;;12.95;7.97;;;10.90;99.90;;;;;;5034262;28;20075;-67
2023/05/07 04:52:03;;;;;;;11.20;9.00;;;11.00;99.90;;;;;;5033743;28;20428;-67
2023/05/07 04:54:29;;;;;;;17.17;8.90;;;11.10;99.90;;;;;;5033808;28;20029;-69
2023/05/07 04:56:55;;;;;;;12.43;8.98;;;11.20;99.90;;;;;;5016179;28;20120;-69
2023/05/07 04:59:21;;;;;;;16.90;11.00;;;11.40;99.90;;;;;;5033618;28;20029;-70
2023/05/07 05:01:46;;;;;;;14.32;10.20;;;11.60;99.90;;;;;;5033562;28;20025;-68
2023/05/07 05:04:13;;;;;;;15.85;10.88;;;11.70;99.90;;;;;;5034034;28;20033;-67
2023/05/07 05:06:38;;;;;;;14.65;10.35;;;11.90;99.90;;;;;;5033770;28;20035;-68
2023/05/07 05:09:04;;;;;;;16.30;10.80;;;12.00;99.90;;;;;;5033971;28;20025;-69
2023/05/07 05:11:31;;;;;;;13.75;10.35;;;12.00;99.90;;;;;;5033685;28;20105;-67
2023/05/07 05:13:56;;;;;;;16.58;11.40;;;12.00;99.90;;;;;;5033412;28;20063;-68
2023/05/07 05:16:22;;;;;;;16.08;11.10;;;12.00;99.90;;;;;;5033395;28;20384;-69
2023/05/07 05:18:48;;;;;;;26.67;14.15;;;12.10;99.90;;;;;;5033719;28;20524;-69
2023/05/07 05:21:13;;;;;;;20.75;15.10;;;12.30;99.90;;;;;;5034129;28;20408;-69
2023/05/07 05:23:39;;;;;;;19.88;14.27;;;12.40;99.90;;;;;;5033663;28;20025;-69
2023/05/07 05:26:04;;;;;;;19.63;14.52;;;12.50;99.90;;;;;;5033622;28;20025;-64
2023/05/07 05:28:30;;;;;;;26.50;16.10;;;12.60;99.90;;;;;;5033848;28;20031;-65
2023/05/07 05:30:56;;;;;;;22.17;15.80;;;12.70;99.90;;;;;;5033758;28;20078;-67
2023/05/07 05:33:21;;;;;;;25.92;17.63;;;12.80;99.90;;;;;;5015844;28;20112;-70
2023/05/07 05:35:47;;;;;;;31.67;21.17;;;12.80;99.90;;;;;;5033488;28;20026;-70
2023/05/07 05:38:13;;;;;;;30.95;21.13;;;12.80;99.90;;;;;;5016039;28;20145;-70
2023/05/07 05:40:39;;;;;;;33.67;21.08;;;12.80;99.90;;;;;;5033478;28;20041;-71
2023/05/07 05:43:05;;;;;;;32.97;23.80;;;12.80;99.90;;;;;;5017746;28;20026;-69
2023/05/07 05:45:31;;;;;;;31.90;23.05;;;12.80;99.90;;;;;;5037226;28;20123;-69
2023/05/07 05:47:57;;;;;;;34.67;23.98;;;12.80;99.90;;;;;;5037010;28;20525;-69
2023/05/07 05:50:23;;;;;;;38.50;24.63;;;12.80;99.90;;;;;;5037200;28;20025;-70
2023/05/07 05:52:48;;;;;;;35.42;24.15;;;12.70;99.90;;;;;;5036957;28;20032;-69
2023/05/07 05:55:14;;;;;;;35.10;23.08;;;12.80;99.90;;;;;;5019892;28;20033;-70
2023/05/07 05:57:40;;;;;;;34.28;23.83;;;12.90;99.90;;;;;;5036884;28;20028;-68
2023/05/07 06:00:07;;;;;;;43.38;25.55;;;12.90;99.90;;;;;;5037085;28;20101;-68
2023/05/07 06:02:33;;;;;;;37.10;25.73;;;13.00;99.90;;;;;;5037091;28;20045;-67
2023/05/07 06:04:59;;;;;;;31.40;23.48;;;13.00;99.90;;;;;;5036771;28;20079;-63
2023/05/07 06:07:25;;;;;;;31.90;23.35;;;13.00;99.90;;;;;;5037107;28;20525;-63
2023/05/07 06:09:50;;;;;;;34.08;24.35;;;13.10;99.90;;;;;;5036667;28;20026;-67
2023/05/07 06:12:16;;;;;;;37.00;24.77;;;13.20;99.90;;;;;;5036856;28;20068;-68
2023/05/07 06:14:43;;;;;;;32.53;23.77;;;13.30;99.90;;;;;;5036965;28;20079;-67
2023/05/07 06:17:09;;;;;;;37.60;23.67;;;13.30;99.90;;;;;;5036807;28;20025;-66
2023/05/07 06:19:35;;;;;;;34.83;24.20;;;13.40;99.90;;;;;;5019565;28;20080;-68
2023/05/07 06:22:02;;;;;;;32.67;23.25;;;13.50;99.90;;;;;;5018932;28;20025;-67
2023/05/07 06:24:28;;;;;;;34.72;22.63;;;13.60;99.90;;;;;;5018907;28;20033;-68
2023/05/07 06:26:54;;;;;;;29.75;21.88;;;13.70;99.90;;;;;;5036600;28;20025;-69
2023/05/07 06:29:19;;;;;;;33.33;21.63;;;13.70;99.90;;;;;;5018804;28;20091;-67
2023/05/07 06:31:45;;;;;;;30.48;21.33;;;13.70;99.90;;;;;;5022891;28;20123;-67
2023/05/07 06:34:14;;;;;;;27.65;20.58;;;13.80;99.90;;;;;;4999080;28;20037;-63
2023/05/07 06:36:40;;;;;;;27.63;20.23;;;13.80;99.90;;;;;;4999039;28;20034;-63
2023/05/07 06:39:06;;;;;;;25.40;19.10;;;13.80;99.90;;;;;;5016620;28;20026;-70
2023/05/07 06:41:31;;;;;;;25.20;18.65;;;13.80;99.90;;;;;;5016546;28;20057;-69
2023/05/07 06:43:57;;;;;;;27.58;18.67;;;13.70;99.90;;;;;;4999171;28;20374;-64
2023/05/07 06:46:23;;;;;;;23.65;17.35;;;13.70;99.90;;;;;;5016238;28;20038;-65
2023/05/07 06:48:48;;;;;;;24.35;18.45;;;13.80;99.90;;;;;;4998690;28;20022;-67
2023/05/07 06:51:14;;;;;;;27.65;18.95;;;13.90;99.90;;;;;;5016044;28;20038;-64
2023/05/07 06:53:40;;;;;;;27.50;19.42;;;14.10;99.90;;;;;;5016351;28;20033;-70
2023/05/07 06:56:06;;;;;;;26.67;17.77;;;14.20;99.90;;;;;;5015986;28;20026;-68
2023/05/07 06:58:32;;;;;;;25.58;18.65;;;14.20;99.90;;;;;;5016262;28;20030;-68
2023/05/07 07:00:57;;;;;;;22.25;17.80;;;14.30;99.90;;;;;;5016204;28;20034;-69
2023/05/07 07:03:23;;;;;;;22.67;17.05;;;14.30;99.90;;;;;;5016094;28;20053;-67
2023/05/07 07:05:52;;;;;;;25.83;17.13;;;14.30;99.90;;;;;;5015997;28;20030;-69
2023/05/07 07:08:18;;;;;;;23.05;16.65;;;14.30;99.90;;;;;;5015950;28;20037;-69
2023/05/07 07:10:44;;;;;;;21.45;16.40;;;14.40;99.90;;;;;;5015966;28;20042;-69
2023/05/07 07:13:09;;;;;;;21.13;16.20;;;14.50;99.90;;;;;;4998389;28;20030;-71
2023/05/07 07:15:35;;;;;;;21.42;15.25;;;14.60;99.90;;;;;;5015923;28;20462;-71
2023/05/07 07:18:01;;;;;;;21.35;16.52;;;14.70;99.90;;;;;;5015833;28;20123;-70
2023/05/07 07:20:26;;;;;;;19.45;15.73;;;14.80;99.90;;;;;;5016065;28;20454;-68
2023/05/07 07:22:52;;;;;;;22.50;16.05;;;15.00;99.90;;;;;;4998285;28;20029;-70
2023/05/07 07:25:17;;;;;;;20.33;15.77;;;15.40;99.90;;;;;;5015721;28;20092;-68
2023/05/07 07:27:43;;;;;;;20.75;15.15;;;15.90;99.90;;;;;;4998060;28;20030;-67
2023/05/07 07:30:09;;;;;;;19.13;14.63;;;16.10;99.90;;;;;;5015576;28;20054;-67
2023/05/07 07:32:35;;;;;;;18.83;14.75;;;16.10;99.90;;;;;;5015581;28;20124;-67
2023/05/07 07:35:01;;;;;;;19.38;14.25;;;16.10;99.90;;;;;;5015558;28;20026;-67
2023/05/07 07:37:27;;;;;;;19.50;15.32;;;16.10;99.90;;;;;;5015640;28;20032;-68
2023/05/07 07:39:52;;;;;;;20.30;15.45;;;16.10;99.90;;;;;;4997845;28;20022;-69
2023/05/07 07:42:18;;;;;;;18.20;14.80;;;16.00;99.90;;;;;;5015332;28;20429;-67
2023/05/07 07:44:44;;;;;;;20.50;15.48;;;15.80;99.90;;;;;;5015366;28;20026;-70
2023/05/07 07:47:10;;;;;;;20.70;15.20;;;15.80;99.90;;;;;;5014894;28;20387;-67
2023/05/07 07:49:36;;;;;;;20.75;16.45;;;15.70;99.90;;;;;;5015217;28;20068;-73
2023/05/07 07:52:01;;;;;;;19.35;14.82;;;15.70;99.90;;;;;;4997752;28;20398;-70
2023/05/07 07:54:27;;;;;;;23.95;15.95;;;15.80;99.90;;;;;;4997765;28;20466;-69
2023/05/07 07:56:53;;;;;;;19.15;15.00;;;16.00;99.90;;;;;;4997537;28;20037;-71
2023/05/07 07:59:18;;;;;;;19.50;15.10;;;16.10;99.90;;;;;;4997465;28;20026;-62
2023/05/07 08:01:44;;;;;;;23.23;15.27;;;16.30;99.90;;;;;;5015075;28;20026;-70
2023/05/07 08:04:10;;;;;;;18.48;14.20;;;16.30;99.90;;;;;;5014996;28;20381;-71
2023/05/07 08:06:36;;;;;;;17.95;13.48;;;16.40;99.90;;;;;;4997547;28;20029;-72
2023/05/07 08:09:02;;;;;;;16.80;13.20;;;16.50;99.90;;;;;;5014863;28;20026;-69
2023/05/07 08:11:28;;;;;;;19.80;13.45;;;16.70;99.90;;;;;;4997136;28;20069;-69
2023/05/07 08:13:54;;;;;;;16.67;13.95;;;16.80;99.90;;;;;;4996940;28;20106;-69
2023/05/07 08:16:20;;;;;;;18.15;13.65;;;16.90;99.90;;;;;;5014804;28;20030;-69
2023/05/07 08:18:46;;;;;;;17.10;13.38;;;17.00;99.90;;;;;;5014659;28;20422;-69
2023/05/07 08:21:12;;;;;;;18.52;13.75;;;17.20;99.90;;;;;;4996908;28;20387;-70
2023/05/07 08:23:37;;;;;;;16.92;13.88;;;17.10;99.90;;;;;;4996949;28;20041;-69
2023/05/07 08:26:03;;;;;;;19.48;13.27;;;17.00;99.90;;;;;;5014783;28;20462;-70
2023/05/07 08:28:29;;;;;;;15.93;13.27;;;17.20;99.90;;;;;;5014604;28;20034;-71
2023/05/07 08:30:56;;;;;;;15.68;12.35;;;17.50;99.90;;;;;;4996850;28;20038;-70
2023/05/07 08:33:22;;;;;;;17.20;12.13;;;17.90;99.90;;;;;;5014520;28;20030;-70
2023/05/07 08:35:47;;;;;;;15.40;11.93;;;18.80;99.90;;;;;;5014894;28;20376;-70
2023/05/07 08:38:13;;;;;;;13.35;11.95;;;19.20;99.90;;;;;;4996806;28;20037;-69
2023/05/07 08:40:40;;;;;;;13.63;11.38;;;19.10;99.90;;;;;;5014131;28;20030;-70
2023/05/07 08:43:07;;;;;;;16.60;12.05;;;19.00;99.90;;;;;;5014055;28;20474;-69
2023/05/07 08:45:34;;;;;;;13.00;11.65;;;18.90;99.90;;;;;;5014219;28;20487;-72
2023/05/07 08:48:03;;;;;;;14.32;11.90;;;18.60;99.90;;;;;;5014452;28;20030;-70
2023/05/07 08:50:29;;;;;;;16.33;11.70;;;18.30;99.90;;;;;;5014002;28;20030;-72
2023/05/07 08:52:56;;;;;;;16.20;11.82;;;18.00;99.90;;;;;;5014701;28;20026;-73
2023/05/07 08:55:23;;;;;;;15.65;12.00;;;17.80;99.90;;;;;;4996551;28;20500;-73
2023/05/07 08:57:52;;;;;;;16.80;12.18;;;17.90;99.90;;;;;;5013747;28;20379;-73
2023/05/07 09:00:18;;;;;;;14.25;11.15;;;18.10;99.90;;;;;;5013930;28;20026;-73
2023/05/07 09:02:43;;;;;;;13.32;11.77;;;18.30;99.90;;;;;;4996031;28;20033;-73
2023/05/07 09:05:09;;;;;;;17.77;11.60;;;18.50;99.90;;;;;;5014032;28;20026;-73
2023/05/07 09:07:35;;;;;;;11.88;9.77;;;18.80;99.90;;;;;;5014527;28;20076;-73
2023/05/07 09:10:05;;;;;;;12.85;10.05;;;19.10;99.90;;;;;;5014049;28;20171;-73
2023/05/07 09:12:30;;;;;;;12.90;10.05;;;19.90;99.90;;;;;;4996250;28;20121;-73
2023/05/07 09:14:56;;;;;;;13.80;10.68;;;21.00;97.30;;;;;;5013898;28;20414;-73
2023/05/07 09:17:22;;;;;;;14.32;9.63;;;21.20;95.40;;;;;;5015847;28;20112;-73
2023/05/07 09:19:47;;;;;;;13.80;10.88;;;21.40;93.20;;;;;;5003007;28;20359;-73
2023/05/07 09:22:13;;;;;;;13.70;12.00;;;21.20;93.60;;;;;;5002763;28;20031;-73
2023/05/07 09:24:39;;;;;;;15.95;12.68;;;20.70;95.40;;;;;;5003267;28;20351;-73
2023/05/07 09:27:05;;;;;;;15.20;12.10;;;20.10;95.90;;;;;;5020869;28;20513;-73
2023/05/07 09:29:37;;;;;;;15.25;12.40;;;19.40;98.80;;;;;;5020386;28;20067;-74
2023/05/07 09:32:06;;;;;;;17.10;11.82;;;19.20;99.60;;;;;;5002636;28;20037;-74
2023/05/07 09:34:32;;;;;;;17.15;11.90;;;19.40;99.90;;;;;;5020054;28;20428;-73
2023/05/07 09:37:02;;;;;;;15.93;11.48;;;19.80;99.50;;;;;;5002516;28;20497;-73
2023/05/07 09:39:48;;;;;;;14.68;10.85;;;20.50;98.10;;;;;;5002407;28;20049;-74
2023/05/07 09:42:15;;;;;;;12.63;11.07;;;21.00;95.40;;;;;;5019716;28;20030;-74
2023/05/07 09:44:42;;;;;;;11.93;10.57;;;21.40;94.90;;;;;;5020009;28;20109;-74
2023/05/07 09:47:08;;;;;;;11.90;10.00;;;22.20;92.60;;;;;;5019836;28;20050;-74
2023/05/07 09:49:36;;;;;;;13.68;9.65;;;22.90;91.00;;;;;;5020141;28;20037;-74
2023/05/07 09:52:05;;;;;;;14.20;10.57;;;22.40;89.70;;;;;;5002402;28;20030;-74
2023/05/07 09:54:33;;;;;;;12.70;10.30;;;21.70;90.80;;;;;;5020044;28;20025;-74
2023/05/07 09:57:02;;;;;;;14.20;9.30;;;21.50;92.70;;;;;;5003015;28;20373;-74
2023/05/07 09:59:29;;;;;;;12.30;9.50;;;21.30;92.70;;;;;;5020119;28;20454;-74
2023/05/07 10:01:58;;;;;;;11.38;9.93;;;21.10;92.30;;;;;;5019957;28;20044;-74
2023/05/07 10:04:25;;;;;;;12.95;10.32;;;21.10;92.40;;;;;;5020082;28;20034;-74
2023/05/07 10:06:51;;;;;;;13.20;9.88;;;21.50;92.40;;;;;;5019677;28;20038;-74
2023/05/07 10:09:17;;;;;;;11.73;10.18;;;21.70;92.10;;;;;;5002485;28;20081;-74
2023/05/07 10:11:43;;;;;;;10.75;8.63;;;21.50;91.70;;;;;;5019843;28;20034;-74
2023/05/07 10:14:10;;;;;;;12.98;9.90;;;21.50;92.00;;;;;;5019921;28;20030;-74
2023/05/07 10:16:36;;;;;;;11.98;9.38;;;21.70;91.10;;;;;;5019911;28;20042;-74
2023/05/07 10:19:04;;;;;;;11.32;8.70;;;22.50;90.80;;;;;;5019824;28;20034;-74
2023/05/07 10:21:31;;;;;;;9.57;8.65;;;23.30;86.20;;;;;;5019849;28;20026;-74
2023/05/07 10:24:10;;;;;;;13.35;8.73;;;23.30;83.00;;;;;;5019809;28;20026;-74
2023/05/07 10:26:37;;;;;;;9.43;8.38;;;23.00;81.70;;;;;;5020064;28;20026;-74
2023/05/07 10:29:34;;;;;;;14.30;8.50;;;23.40;78.80;;;;;;5017552;28;20148;-74
2023/05/07 10:32:11;;;;;;;12.18;8.98;;;24.00;79.00;;;;;;4976551;28;20046;-74
2023/05/07 10:34:41;;;;;;;10.80;8.20;;;24.20;74.00;;;;;;5017021;28;20033;-74
2023/05/07 10:37:08;;;;;;;10.63;8.38;;;24.00;72.80;;;;;;5016555;28;20026;-74
2023/05/07 10:39:34;;;;;;;9.65;8.50;;;23.10;74.40;;;;;;5016560;28;20080;-74
2023/05/07 10:42:10;;;;;;;8.95;7.95;;;22.60;79.10;;;;;;4998845;28;20038;-74
2023/05/07 10:44:37;;;;;;;11.23;8.00;;;23.00;77.20;;;;;;4998928;28;20053;-74
2023/05/07 10:47:12;;;;;;;8.95;7.43;;;23.00;75.00;;;;;;4998661;28;20486;-74
2023/05/07 10:49:41;;;;;;;7.78;6.95;;;23.40;76.00;;;;;;5016467;28;20149;-74
2023/05/07 10:52:23;;;;;;;7.03;6.05;;;23.10;73.00;;;;;;4998670;28;20414;-74
2023/05/07 10:55:18;;;;;;;8.75;7.72;;;23.30;75.50;;;;;;4998652;28;20248;-74
2023/05/07 10:57:44;;;;;;;9.63;6.88;;;24.20;71.20;;;;;;5016525;28;20025;-74
2023/05/07 11:00:27;;;;;;;10.43;7.68;;;24.20;71.20;;;;;;4998355;28;20037;-74
2023/05/07 11:02:59;;;;;;;8.60;7.50;;;24.00;69.80;;;;;;4998800;28;20029;-74
2023/05/07 11:05:26;;;;;;;9.15;7.40;;;23.70;69.30;;;;;;5016196;28;20099;-74
2023/05/07 11:07:56;;;;;;;9.90;7.75;;;23.60;70.30;;;;;;4998577;28;20509;-74
2023/05/07 11:10:22;;;;;;;7.53;6.60;;;23.80;69.90;;;;;;4998259;28;20026;-74
2023/05/07 11:12:49;;;;;;;7.32;6.63;;;24.00;70.80;;;;;;5015945;28;20511;-74
2023/05/07 11:15:15;;;;;;;7.68;6.93;;;24.50;69.00;;;;;;4998263;28;20083;-74
2023/05/07 11:17:58;;;;;;;8.25;7.28;;;24.00;67.60;;;;;;5016071;28;20033;-74
2023/05/07 11:20:58;;;;;;;8.77;7.40;;;24.10;68.30;;;;;;5015937;28;20022;-74
2023/05/07 11:23:33;;;;;;;10.25;6.70;;;24.80;67.30;;;;;;5015704;28;20022;-74
2023/05/07 11:26:07;;;;;;;7.82;6.80;;;25.70;65.90;;;;;;4998183;28;20033;-74
2023/05/07 11:28:39;;;;;;;8.57;7.40;;;25.70;63.40;;;;;;5015821;28;20021;-74
2023/05/07 11:31:05;;;;;;;7.93;7.03;;;24.60;63.20;;;;;;4997768;28;20058;-74
2023/05/07 11:33:31;;;;;;;7.50;6.55;;;23.80;66.00;;;;;;5015545;28;20052;-74
2023/05/07 11:35:57;;;;;;;7.20;6.43;;;23.30;67.40;;;;;;5015557;28;20040;-74
2023/05/07 11:38:23;;;;;;;7.93;7.13;;;24.30;66.20;;;;;;4997950;28;20101;-74
2023/05/07 11:41:02;;;;;;;7.18;6.00;;;24.00;65.40;;;;;;4997573;28;20030;-74
2023/05/07 11:43:28;;;;;;;7.57;6.78;;;24.30;65.30;;;;;;5015544;28;20462;-74
2023/05/07 11:45:53;;;;;;;7.95;6.57;;;24.40;64.70;;;;;;4997590;28;20054;-74
2023/05/07 11:48:22;;;;;;;8.35;7.05;;;25.50;63.50;;;;;;5015982;28;20045;-74
2023/05/07 11:50:52;;;;;;;7.70;6.75;;;26.50;61.00;;;;;;5014864;28;20475;-74
2023/05/07 11:53:18;;;;;;;7.40;5.85;;;26.90;59.50;;;;;;5015385;28;20378;-74
2023/05/07 11:55:44;;;;;;;7.95;6.03;;;26.90;57.40;;;;;;4997511;28;20030;-75
2023/05/07 11:58:12;;;;;;;6.63;5.95;;;25.70;58.50;;;;;;4997481;28;20033;-75
2023/05/07 12:00:38;;;;;;;8.07;5.57;;;25.20;60.30;;;;;;4997393;28;20374;-74
2023/05/07 12:03:04;;;;;;;11.82;7.07;;;25.10;61.10;;;;;;5015108;28;20032;-75
2023/05/07 12:05:30;;;;;;;6.65;6.03;;;24.90;59.20;;;;;;5015074;28;20462;-74
2023/05/07 12:07:57;;;;;;;6.63;6.00;;;25.00;60.60;;;;;;5015207;28;20026;-75
2023/05/07 12:10:24;;;;;;;7.88;6.30;;;24.90;60.80;;;;;;5014767;28;20029;-75
2023/05/07 12:12:50;;;;;;;8.23;6.63;;;23.70;62.30;;;;;;4997234;28;20030;-74
2023/05/07 12:15:17;;;;;;;5.88;5.28;;;23.00;64.10;;;;;;5014789;28;20025;-74
2023/05/07 12:17:43;;;;;;;5.82;5.28;;;22.80;66.10;;;;;;5014805;28;20053;-65
2023/05/07 12:20:10;;;;;;;6.72;5.88;;;22.90;66.90;;;;;;5014700;28;20104;-65
2023/05/07 12:22:36;;;;;;;7.25;5.63;;;22.50;67.20;;;;;;5014860;28;20037;-65
2023/05/07 12:25:02;;;;;;;9.18;5.82;;;22.30;68.50;;;;;;4996982;28;20030;-67
2023/05/07 12:27:28;;;;;;;6.38;5.60;;;22.10;69.30;;;;;;5014770;28;20455;-66
2023/05/07 12:29:54;;;;;;;6.32;5.63;;;21.80;71.00;;;;;;5014565;28;20036;-65
2023/05/07 12:32:21;;;;;;;6.82;5.95;;;21.70;72.40;;;;;;5014494;28;20034;-67
2023/05/07 12:34:50;;;;;;;10.73;6.00;;;21.70;71.60;;;;;;4996860;28;20478;-66
2023/05/07 12:37:16;;;;;;;6.25;5.45;;;21.60;72.00;;;;;;5014472;28;20022;-67